X  CloseMetar Aviation Weather Data     YMAV Avalon Airport

Temperature

10°C Temperature

9°C Dewpoint

94% Humidity



Wind

26 KM/H

16 MPH

 7 M/S

14 KTS



280°
Due West
Current Conditions

Mostly Scattered Clouds Mostly Scattered Clouds
Pressure 1018.92 (hPa) - 30.09 (in)
Visibility 6.2 (mi) - 10 (km)
Airport
Airport-code YMAV

Location Avalon Airport 44 (km)

Metar:
YMAV 041530Z AUTO 28014KT 9999 // SCT011 SCT029 BKN041 10/09 Q1019

Time: 05-08-2021 01:30